Time;durP1;ratioP1;P1;durP2;ratioP2;P2;SDS_P1;SDS_P2;PMS_P1;PMS_P2;Temp;Humidity;BMP_temperature;BMP_pressure;BME280_temperature;BME280_humidity;BME280_pressure;Samples;Min_cycle;Max_cycle;Signal;HPM_P1;HPM_P2
2023/06/16 00:01:23;;;;;;;8.10;5.68;;;;;;;24.68;37.74;101131.63;5072699;28;20568;-66
2023/06/16 00:03:52;;;;;;;9.43;5.15;;;;;;;24.94;37.62;101130.50;5067380;28;20052;-65
2023/06/16 00:06:20;;;;;;;11.27;5.47;;;;;;;25.10;37.10;101128.09;5054470;28;20559;-65
2023/06/16 00:08:51;;;;;;;8.77;5.03;;;;;;;25.21;36.92;101146.63;5059856;28;20033;-66
2023/06/16 00:11:19;;;;;;;9.38;7.40;;;;;;;25.22;37.59;101138.97;5053381;28;20063;-68
2023/06/16 00:13:47;;;;;;;11.73;5.90;;;;;;;25.17;37.27;101137.38;5054553;28;20510;-66
2023/06/16 00:16:21;;;;;;;9.43;5.50;;;;;;;24.71;38.39;101141.31;5077395;28;20443;-66
2023/06/16 00:18:51;;;;;;;9.50;4.85;;;;;;;24.84;38.13;101140.56;5068193;28;20053;-66
2023/06/16 00:21:25;;;;;;;11.90;5.07;;;;;;;24.84;38.09;101145.38;5053687;28;20579;-66
2023/06/16 00:23:53;;;;;;;10.38;4.75;;;;;;;24.74;38.16;101144.16;5073320;28;20694;-66
2023/06/16 00:26:22;;;;;;;7.38;4.88;;;;;;;24.64;38.73;101144.09;5073253;28;20059;-66
2023/06/16 00:28:50;;;;;;;9.77;5.03;;;;;;;24.78;38.31;101133.69;5057826;28;20124;-65
2023/06/16 00:31:17;;;;;;;9.15;5.22;;;;;;;24.79;38.34;101142.97;5051467;28;20056;-65
2023/06/16 00:33:45;;;;;;;10.60;5.03;;;;;;;24.73;38.14;101138.91;5057991;28;20496;-65
2023/06/16 00:36:15;;;;;;;8.93;5.32;;;;;;;24.78;38.78;101135.69;5058230;28;20049;-67
2023/06/16 00:38:43;;;;;;;9.90;5.10;;;;;;;24.70;38.71;101134.91;5076521;28;20056;-66
2023/06/16 00:41:10;;;;;;;10.90;5.75;;;;;;;24.86;38.77;101137.34;5072858;28;20071;-66
2023/06/16 00:43:37;;;;;;;8.88;4.95;;;;;;;24.92;38.42;101139.38;5070823;28;20057;-66
2023/06/16 00:46:05;;;;;;;10.35;5.43;;;;;;;24.90;38.39;101140.97;5070874;28;20052;-67
2023/06/16 00:48:33;;;;;;;8.55;5.22;;;;;;;24.86;38.50;101140.16;5069533;28;20514;-65
2023/06/16 00:51:00;;;;;;;7.35;5.03;;;;;;;24.74;39.03;101137.72;5054842;28;20058;-66
2023/06/16 00:53:31;;;;;;;9.35;5.60;;;;;;;24.71;39.07;101130.88;5073000;28;20055;-65
2023/06/16 00:56:00;;;;;;;10.48;5.32;;;;;;;24.32;39.84;101139.16;5072198;28;20055;-65
2023/06/16 00:58:29;;;;;;;10.10;5.68;;;;;;;24.34;39.67;101148.03;5064648;28;20049;-66
2023/06/16 01:00:57;;;;;;;9.63;5.25;;;;;;;24.39;39.63;101146.84;5060038;28;20072;-66
2023/06/16 01:03:26;;;;;;;10.18;4.95;;;;;;;24.60;39.33;101144.06;5072694;28;20389;-65
2023/06/16 01:05:56;;;;;;;10.85;5.45;;;;;;;24.59;39.40;101150.13;5058531;28;20048;-65
2023/06/16 01:08:44;;;;;;;8.40;5.68;;;;;;;24.45;39.52;101148.06;5042780;28;20052;-65
2023/06/16 01:11:18;;;;;;;8.63;5.25;;;;;;;24.29;39.88;101139.13;5067517;28;20484;-66
2023/06/16 01:14:03;;;;;;;10.25;5.15;;;;;;;24.12;40.28;101140.69;5061655;28;20516;-66
2023/06/16 01:16:31;;;;;;;8.57;5.00;;;;;;;24.04;40.48;101138.25;5071100;28;20044;-66
2023/06/16 01:19:09;;;;;;;11.68;5.18;;;;;;;23.76;41.18;101136.03;5059710;28;20044;-66
2023/06/16 01:21:48;;;;;;;7.30;4.90;;;;;;;23.88;40.87;101134.91;5051247;28;20059;-66
2023/06/16 01:24:17;;;;;;;;;;;;;;;23.51;41.79;101132.25;5071618;28;20055;-66
2023/06/16 01:26:49;;;;;;;8.95;4.90;;;;;;;23.36;42.15;101141.78;5061331;28;20375;-66
2023/06/16 01:29:21;;;;;;;11.00;5.05;;;;;;;23.50;41.94;101141.88;5037506;28;20396;-65
2023/06/16 01:31:51;;;;;;;8.48;5.05;;;;;;;23.82;41.37;101136.44;5058740;28;20119;-66
2023/06/16 01:34:20;;;;;;;8.20;4.70;;;;;;;23.56;41.92;101134.69;5034804;28;20061;-66
2023/06/16 01:36:49;;;;;;;10.02;5.10;;;;;;;23.60;42.26;101131.91;5077691;28;20084;-66
2023/06/16 01:39:18;;;;;;;11.75;5.10;;;;;;;23.44;42.65;101132.19;5066314;28;20048;-66
2023/06/16 01:41:47;;;;;;;8.45;5.57;;;;;;;23.39;42.81;101129.75;5067553;28;20055;-66
2023/06/16 01:44:14;;;;;;;10.73;4.87;;;;;;;23.24;43.20;101122.38;5051603;28;20055;-66
2023/06/16 01:46:42;;;;;;;11.35;4.93;;;;;;;22.93;42.36;101131.31;5034521;28;20052;-66
2023/06/16 01:49:11;;;;;;;9.45;4.85;;;;;;;23.13;43.11;101127.09;5038749;28;20041;-65
2023/06/16 01:51:38;;;;;;;8.32;4.85;;;;;;;22.95;43.65;101134.53;5053737;28;20053;-65
2023/06/16 01:54:06;;;;;;;8.65;4.93;;;;;;;23.28;43.15;101138.09;5054630;28;20056;-67
2023/06/16 01:56:34;;;;;;;11.35;4.47;;;;;;;23.56;42.56;101143.13;5063195;28;20053;-65
2023/06/16 01:59:01;;;;;;;9.57;4.95;;;;;;;23.26;43.46;101148.88;5037284;28;20054;-66
2023/06/16 02:01:30;;;;;;;9.50;5.03;;;;;;;23.40;42.96;101151.03;5056001;28;20049;-66
2023/06/16 02:04:19;;;;;;;7.30;4.65;;;;;;;23.10;43.36;101147.53;5053130;28;20057;-65
2023/06/16 02:07:25;;;;;;;10.90;4.87;;;;;;;22.92;44.09;101153.00;5055388;28;20060;-66
2023/06/16 02:09:53;;;;;;;7.03;5.18;;;;;;;22.64;44.79;101152.69;5052373;28;20060;-64
2023/06/16 02:12:20;;;;;;;7.63;5.13;;;;;;;22.68;44.86;101149.91;5062911;28;20049;-65
2023/06/16 02:14:48;;;;;;;9.82;4.75;;;;;;;22.88;44.57;101149.31;5037964;28;20045;-66
2023/06/16 02:17:16;;;;;;;11.25;5.00;;;;;;;22.92;44.66;101144.56;5053811;28;20049;-65
2023/06/16 02:19:43;;;;;;;10.82;5.45;;;;;;;22.79;45.20;101140.41;5054378;28;20041;-65
2023/06/16 02:22:10;;;;;;;11.20;5.10;;;;;;;22.94;44.98;101146.97;5055592;28;20053;-66
2023/06/16 02:24:38;;;;;;;9.90;4.65;;;;;;;23.18;44.38;101146.41;5072242;28;20048;-66
2023/06/16 02:27:05;;;;;;;11.23;5.18;;;;;;;23.24;44.36;101148.47;5071728;28;20507;-66
2023/06/16 02:29:33;;;;;;;8.93;5.13;;;;;;;23.19;44.34;101148.00;5073109;28;20052;-65
2023/06/16 02:32:00;;;;;;;9.55;4.65;;;;;;;22.98;44.77;101148.63;5064618;28;20071;-65
2023/06/16 02:34:27;;;;;;;8.70;4.93;;;;;;;23.14;44.51;101139.94;5067186;28;20053;-65
2023/06/16 02:36:56;;;;;;;8.40;4.78;;;;;;;23.15;44.21;101138.75;5090475;28;20048;-65
2023/06/16 02:39:24;;;;;;;12.15;5.40;;;;;;;23.19;44.27;101142.38;5082940;28;20040;-65
2023/06/16 02:41:51;;;;;;;16.65;5.07;;;;;;;22.66;45.50;101141.06;5071022;28;20514;-66
2023/06/16 02:44:18;;;;;;;11.13;4.90;;;;;;;22.79;45.25;101134.78;5054082;28;20060;-66
2023/06/16 02:46:46;;;;;;;6.95;4.70;;;;;;;22.71;45.42;101143.53;5063960;28;20041;-64
2023/06/16 02:49:13;;;;;;;7.68;4.90;;;;;;;22.35;46.22;101145.88;5072516;28;20060;-66
2023/06/16 02:51:41;;;;;;;10.10;5.15;;;;;;;22.60;45.84;101145.41;5057080;28;20057;-66
2023/06/16 02:54:10;;;;;;;9.68;4.80;;;;;;;22.62;45.75;101151.44;5063684;28;20045;-65
2023/06/16 02:56:37;;;;;;;8.27;4.63;;;;;;;22.71;45.73;101141.53;5070732;28;20060;-64
2023/06/16 02:59:05;;;;;;;7.78;5.35;;;;;;;22.76;45.46;101143.16;5066095;28;20052;-65
2023/06/16 03:01:32;;;;;;;11.02;5.20;;;;;;;22.66;45.64;101146.69;5057265;28;20051;-65
2023/06/16 03:04:34;;;;;;;9.77;4.90;;;;;;;22.53;45.85;101146.09;5041478;28;20064;-65
2023/06/16 03:07:10;;;;;;;8.57;4.50;;;;;;;22.69;45.63;101145.91;5054529;28;20052;-65
2023/06/16 03:09:45;;;;;;;10.73;5.20;;;;;;;22.37;46.04;101141.91;5072467;28;20044;-65
2023/06/16 03:12:13;;;;;;;8.80;4.95;;;;;;;22.09;46.96;101143.16;5072440;28;20052;-65
2023/06/16 03:14:51;;;;;;;7.22;4.97;;;;;;;22.23;46.88;101142.53;5056072;28;20055;-65
2023/06/16 03:17:20;;;;;;;9.55;4.90;;;;;;;22.39;46.40;101147.94;5072882;28;20056;-65
2023/06/16 03:19:49;;;;;;;7.18;5.00;;;;;;;21.93;47.58;101150.94;5061221;28;20053;-65
2023/06/16 03:22:22;;;;;;;9.32;5.18;;;;;;;21.95;47.78;101145.75;5039128;28;20060;-65
2023/06/16 03:24:50;;;;;;;9.88;5.28;;;;;;;22.08;47.32;101151.94;5069461;28;20056;-65
2023/06/16 03:27:18;;;;;;;10.25;4.82;;;;;;;22.03;47.48;101155.91;5089554;28;20044;-65
2023/06/16 03:29:58;;;;;;;6.93;4.63;;;;;;;22.12;47.33;101150.78;5093200;28;20063;-65
2023/06/16 03:32:28;;;;;;;10.40;5.15;;;;;;;22.07;47.60;101158.75;5078073;28;20052;-65
2023/06/16 03:34:57;;;;;;;8.40;4.68;;;;;;;22.42;47.01;101155.59;5073223;28;20052;-65
2023/06/16 03:37:25;;;;;;;9.30;4.85;;;;;;;22.56;46.71;101153.00;5084054;28;20055;-65
2023/06/16 03:39:52;;;;;;;8.65;5.10;;;;;;;;;;5093927;28;20048;-66
2023/06/16 03:42:20;;;;;;;7.90;4.95;;;;;;;21.89;48.35;101161.31;5086907;28;20067;-65
2023/06/16 03:44:48;;;;;;;8.20;4.80;;;;;;;22.00;48.30;101161.47;5053884;28;20052;-65
2023/06/16 03:47:16;;;;;;;8.45;5.13;;;;;;;22.09;48.03;101157.19;5064234;28;20520;-65
2023/06/16 03:49:43;;;;;;;9.95;5.28;;;;;;;22.20;47.85;101152.53;5042871;28;20040;-65
2023/06/16 03:52:11;;;;;;;7.43;4.97;;;;;;;22.25;47.83;101155.00;5051976;28;20052;-66
2023/06/16 03:54:38;;;;;;;12.05;4.65;;;;;;;22.30;47.45;101154.66;5067029;28;20056;-65
2023/06/16 03:57:06;;;;;;;8.73;4.93;;;;;;;22.35;47.45;101148.69;5072074;28;20052;-66
2023/06/16 03:59:33;;;;;;;9.98;4.40;;;;;;;22.61;46.83;101156.28;5072038;28;20040;-66
2023/06/16 04:02:07;;;;;;;11.60;4.70;;;;;;;22.62;46.75;101155.06;5072238;28;20041;-65
2023/06/16 04:04:37;;;;;;;8.05;4.88;;;;;;;21.77;48.69;101155.09;5068293;28;20596;-66
2023/06/16 04:07:05;;;;;;;9.05;4.47;;;;;;;21.92;48.99;101162.53;5019897;28;20053;-65
2023/06/16 04:09:32;;;;;;;9.63;4.97;;;;;;;22.20;48.06;101155.34;5071715;28;20078;-66
2023/06/16 04:12:03;;;;;;;14.30;4.72;;;;;;;21.96;48.39;101153.00;5072139;28;20051;-67
2023/06/16 04:14:30;;;;;;;7.70;4.40;;;;;;;22.15;48.13;101161.28;5071274;28;20094;-66
2023/06/16 04:16:58;;;;;;;7.82;4.43;;;;;;;22.41;47.64;101162.38;5071753;28;20059;-64
2023/06/16 04:19:26;;;;;;;8.88;4.82;;;;;;;22.23;47.65;101162.16;5064473;28;20049;-66
2023/06/16 04:21:55;;;;;;;7.43;5.03;;;;;;;21.73;49.38;101169.06;5062350;28;20059;-66
2023/06/16 04:24:26;;;;;;;9.95;5.50;;;;;;;21.65;49.51;101172.94;5052155;28;20056;-66
2023/06/16 04:26:58;;;;;;;9.45;4.97;;;;;;;21.30;50.68;101172.38;5080982;28;20052;-65
2023/06/16 04:29:27;;;;;;;8.68;5.32;;;;;;;21.67;49.74;101170.56;5079809;28;20534;-65
2023/06/16 04:31:58;;;;;;;11.18;5.43;;;;;;;21.59;49.84;101168.03;5071534;28;20063;-65
2023/06/16 04:34:31;;;;;;;7.60;5.00;;;;;;;21.74;49.50;101167.84;5056771;28;20055;-66
2023/06/16 04:37:01;;;;;;;9.65;4.95;;;;;;;22.32;48.18;101165.50;5092571;28;20052;-62
2023/06/16 04:39:32;;;;;;;8.00;4.97;;;;;;;22.14;48.55;101173.69;5065372;28;20060;-62
2023/06/16 04:42:02;;;;;;;10.30;5.00;;;;;;;22.16;48.24;101176.91;5071605;28;20408;-62
2023/06/16 04:44:31;;;;;;;10.75;5.45;;;;;;;21.55;49.98;101173.56;5054310;28;20079;-61
2023/06/16 04:46:58;;;;;;;11.23;5.28;;;;;;;21.66;49.60;101177.34;5059796;28;20040;-62
2023/06/16 04:49:26;;;;;;;6.93;4.90;;;;;;;21.87;48.94;101168.47;5053815;28;20049;-61
2023/06/16 04:51:54;;;;;;;8.02;5.43;;;;;;;22.14;48.10;101175.69;5050350;28;20049;-61
2023/06/16 04:54:21;;;;;;;9.88;5.10;;;;;;;21.92;48.90;101168.16;5078986;28;20053;-61
2023/06/16 04:56:50;;;;;;;11.45;5.10;;;;;;;21.61;49.56;101174.88;5034859;28;20057;-61
2023/06/16 04:59:17;;;;;;;11.25;5.63;;;;;;;21.46;50.21;101164.63;5059903;28;20053;-61
2023/06/16 05:01:47;;;;;;;11.10;5.45;;;;;;;21.01;51.33;101170.22;5069740;28;20045;-63
2023/06/16 05:04:15;;;;;;;10.88;5.60;;;;;;;20.61;52.19;101169.84;5057512;28;20056;-61
2023/06/16 05:06:43;;;;;;;9.00;5.60;;;;;;;21.33;50.84;101170.78;5062369;28;20052;-61
2023/06/16 05:09:10;;;;;;;15.55;5.50;;;;;;;21.47;50.41;101163.44;5072298;28;20052;-62
2023/06/16 05:11:37;;;;;;;8.90;5.07;;;;;;;21.61;49.90;101165.66;5051186;28;20045;-63
2023/06/16 05:14:05;;;;;;;13.55;5.35;;;;;;;21.43;50.01;101161.78;5057680;28;20052;-61
2023/06/16 05:16:32;;;;;;;11.32;5.70;;;;;;;21.48;50.24;101159.44;5051391;28;20056;-62
2023/06/16 05:19:00;;;;;;;10.98;5.50;;;;;;;21.44;50.18;101169.00;5051917;28;20049;-63
2023/06/16 05:21:30;;;;;;;10.23;5.28;;;;;;;21.49;50.34;101166.69;5065996;28;20462;-63
2023/06/16 05:23:58;;;;;;;12.13;5.68;;;;;;;21.47;50.21;101155.03;5066107;28;20055;-62
2023/06/16 05:26:27;;;;;;;9.52;5.55;;;;;;;21.60;49.84;101159.22;5069942;28;20424;-61
2023/06/16 05:28:55;;;;;;;10.93;5.50;;;;;;;21.61;49.90;101158.06;5072382;28;20044;-61
2023/06/16 05:31:25;;;;;;;9.80;5.47;;;;;;;21.63;49.66;101160.47;5071546;28;20048;-63
2023/06/16 05:33:55;;;;;;;10.13;6.03;;;;;;;21.36;50.68;101167.25;5071230;28;20057;-61
2023/06/16 05:36:24;;;;;;;10.50;5.57;;;;;;;21.63;49.80;101161.31;5076508;28;20067;-62
2023/06/16 05:38:52;;;;;;;12.65;5.38;;;;;;;21.95;49.19;101162.59;5059414;28;20059;-65
2023/06/16 05:41:23;;;;;;;13.20;5.80;;;;;;;22.05;48.53;101161.13;5051693;28;20056;-62
2023/06/16 05:43:51;;;;;;;14.65;5.90;;;;;;;21.70;48.93;101166.19;5071158;28;20067;-62
2023/06/16 05:46:18;;;;;;;13.50;6.10;;;;;;;21.62;49.74;101168.06;5071382;28;20112;-62
2023/06/16 05:48:46;;;;;;;11.00;5.80;;;;;;;21.51;50.03;101166.31;5074833;28;20051;-61
2023/06/16 05:51:14;;;;;;;17.52;6.22;;;;;;;21.74;49.60;101159.44;5058290;28;20107;-63
2023/06/16 05:53:41;;;;;;;11.18;6.35;;;;;;;21.75;49.82;101158.28;5074206;28;20064;-62
2023/06/16 05:56:09;;;;;;;15.10;6.18;;;;;;;22.30;48.20;101151.84;5073037;28;20307;-61
2023/06/16 05:58:37;;;;;;;11.43;5.95;;;;;;;22.39;47.28;101151.53;5064107;28;20055;-63
2023/06/16 06:01:13;;;;;;;12.15;6.15;;;;;;;22.70;47.39;101151.13;5074869;28;20064;-62
2023/06/16 06:03:45;;;;;;;10.95;6.10;;;;;;;22.48;47.36;101162.47;5064127;28;20048;-63
2023/06/16 06:06:14;;;;;;;11.50;5.57;;;;;;;22.56;47.49;101161.41;5074376;28;20487;-62
2023/06/16 06:08:44;;;;;;;13.52;6.30;;;;;;;22.70;47.22;101165.19;5074178;28;20055;-62
2023/06/16 06:11:13;;;;;;;17.50;6.43;;;;;;;22.54;47.15;101160.97;5070850;28;20036;-62
2023/06/16 06:13:40;;;;;;;12.98;5.88;;;;;;;22.51;45.88;101159.72;5054005;28;20057;-62
2023/06/16 06:16:11;;;;;;;21.05;6.43;;;;;;;22.63;44.32;101164.31;5053790;28;20048;-62
2023/06/16 06:18:43;;;;;;;14.50;6.18;;;;;;;22.84;44.43;101153.31;5054085;28;20053;-61
2023/06/16 06:21:10;;;;;;;18.52;6.28;;;;;;;23.15;43.96;101164.03;5038995;28;20044;-61
2023/06/16 06:23:38;;;;;;;10.23;5.53;;;;;;;23.11;43.65;101152.78;5044315;28;20053;-61
2023/06/16 06:26:06;;;;;;;18.10;5.68;;;;;;;22.92;43.62;101160.59;5044816;28;20045;-61
2023/06/16 06:28:33;;;;;;;16.48;6.55;;;;;;;23.56;42.67;101167.63;5058476;28;20052;-62
2023/06/16 06:31:01;;;;;;;20.10;6.53;;;;;;;23.35;41.50;101168.25;5076897;28;20056;-61
2023/06/16 06:33:30;;;;;;;8.88;5.50;;;;;;;23.06;40.90;101166.38;5055338;28;20056;-61
2023/06/16 06:36:01;;;;;;;18.38;5.72;;;;;;;23.49;40.53;101173.19;5060436;28;20419;-60
2023/06/16 06:38:30;;;;;;;16.70;5.63;;;;;;;23.76;40.00;101178.25;5059868;28;20037;-62
2023/06/16 06:40:58;;;;;;;12.77;5.22;;;;;;;23.59;39.29;101178.91;5057674;28;20452;-61
2023/06/16 06:43:26;;;;;;;17.38;5.45;;;;;;;23.58;39.13;101176.47;5056412;28;20040;-61
2023/06/16 06:46:04;;;;;;;24.38;5.65;;;;;;;23.84;38.94;101177.06;5067340;28;20131;-61
2023/06/16 06:48:37;;;;;;;16.75;5.35;;;;;;;23.70;38.54;101181.78;5074830;28;20044;-61
2023/06/16 06:51:06;;;;;;;11.98;4.93;;;;;;;24.00;38.11;101186.06;5055647;28;20055;-62
2023/06/16 06:53:34;;;;;;;11.15;5.47;;;;;;;23.97;38.34;101175.53;5060164;28;20696;-61
2023/06/16 06:56:01;;;;;;;15.35;5.53;;;;;;;24.02;38.23;101188.47;5038279;28;20481;-61
2023/06/16 06:58:28;;;;;;;14.80;5.50;;;;;;;24.27;38.12;101193.03;5056786;28;20052;-60
2023/06/16 07:00:56;;;;;;;16.52;5.43;;;;;;;24.20;37.92;101195.03;5065444;28;20055;-59
2023/06/16 07:03:23;;;;;;;17.83;6.40;;;;;;;24.31;37.85;101193.06;5059080;28;20049;-61
2023/06/16 07:05:50;;;;;;;14.98;5.65;;;;;;;24.36;38.18;101201.13;5063937;28;20048;-61
2023/06/16 07:08:17;;;;;;;18.42;6.53;;;;;;;24.47;37.40;101202.81;5062315;28;20044;-60
2023/06/16 07:10:45;;;;;;;13.43;5.60;;;;;;;24.38;37.78;101204.34;5062213;28;20068;-61
2023/06/16 07:13:12;;;;;;;22.45;5.82;;;;;;;24.70;36.88;101204.53;5060740;28;20048;-62
2023/06/16 07:15:39;;;;;;;28.52;6.00;;;;;;;24.19;37.40;101205.47;5060821;28;20064;-60
2023/06/16 07:18:07;;;;;;;14.20;6.45;;;;;;;24.27;37.56;101212.75;5061903;28;20059;-61
2023/06/16 07:20:34;;;;;;;14.52;6.32;;;;;;;24.45;37.08;101219.28;5064927;28;20053;-61
2023/06/16 07:23:02;;;;;;;15.93;5.95;;;;;;;24.59;36.56;101215.72;5062656;28;20543;-61
2023/06/16 07:25:32;;;;;;;14.75;5.53;;;;;;;24.70;36.86;101210.97;5062845;28;20056;-60
2023/06/16 07:28:00;;;;;;;17.08;6.07;;;;;;;24.92;36.00;101215.47;5054822;28;20044;-62
2023/06/16 07:30:27;;;;;;;17.88;5.68;;;;;;;25.03;35.99;101209.84;5062635;28;20051;-60
2023/06/16 07:32:54;;;;;;;11.13;5.75;;;;;;;24.98;35.51;101215.88;5065298;28;20052;-61
2023/06/16 07:35:22;;;;;;;17.00;5.95;;;;;;;25.41;34.98;101217.59;5046302;28;20051;-61
2023/06/16 07:37:50;;;;;;;16.00;6.07;;;;;;;25.54;34.56;101211.13;5060392;28;20048;-60
2023/06/16 07:40:17;;;;;;;25.23;6.35;;;;;;;25.56;34.53;101211.53;5058042;28;20044;-61
2023/06/16 07:42:45;;;;;;;15.00;6.00;;;;;;;25.99;33.75;101206.69;5057911;28;20040;-61
2023/06/16 07:45:13;;;;;;;19.85;6.55;;;;;;;26.31;33.43;101210.25;5056287;28;20057;-60
2023/06/16 07:47:41;;;;;;;34.55;7.85;;;;;;;26.62;32.99;101206.50;5056481;28;20044;-60
2023/06/16 07:50:10;;;;;;;29.30;6.85;;;;;;;26.63;32.51;101210.94;5054437;28;20055;-60
2023/06/16 07:52:38;;;;;;;23.38;6.68;;;;;;;26.32;32.00;101217.53;5055447;28;20044;-60
2023/06/16 07:55:06;;;;;;;20.85;7.22;;;;;;;25.84;33.24;101218.41;5055894;28;20055;-60
2023/06/16 07:57:33;;;;;;;20.13;6.22;;;;;;;26.08;32.50;101211.94;5056982;28;20048;-60
2023/06/16 08:00:00;;;;;;;15.35;5.75;;;;;;;26.61;32.04;101219.03;5060294;28;20049;-61
2023/06/16 08:02:41;;;;;;;18.48;5.90;;;;;;;26.47;31.40;101219.06;5057800;28;20420;-60
2023/06/16 08:05:11;;;;;;;11.52;5.35;;;;;;;26.50;31.88;101212.59;5065897;28;20052;-60
2023/06/16 08:07:38;;;;;;;11.88;6.07;;;;;;;26.79;31.58;101212.50;5064142;28;20056;-60
2023/06/16 08:10:07;;;;;;;18.85;6.13;;;;;;;27.15;30.26;101211.88;5061712;28;20060;-60
2023/06/16 08:12:34;;;;;;;20.35;5.45;;;;;;;27.27;30.63;101205.75;5068158;28;20048;-61
2023/06/16 08:15:05;;;;;;;19.05;5.95;;;;;;;27.42;29.99;101200.81;5065746;28;20052;-61
2023/06/16 08:17:32;;;;;;;17.48;5.53;;;;;;;27.27;30.07;101199.28;5062068;28;20054;-60
2023/06/16 08:20:00;;;;;;;19.73;6.30;;;;;;;27.39;30.38;101199.63;5057264;28;20052;-61
2023/06/16 08:22:27;;;;;;;25.08;5.70;;;;;;;27.17;30.66;101203.81;5066034;28;20048;-60
2023/06/16 08:24:55;;;;;;;21.10;7.45;;;;;;;26.88;30.16;101198.72;5051899;28;20049;-60
2023/06/16 08:27:22;;;;;;;15.75;5.65;;;;;;;26.94;30.64;101197.88;5063118;28;20651;-61
2023/06/16 08:29:50;;;;;;;20.30;5.70;;;;;;;26.48;30.96;101205.75;5065709;28;20048;-60
2023/06/16 08:32:17;;;;;;;12.38;5.35;;;;;;;26.72;30.10;101192.75;5062274;28;20056;-60
2023/06/16 08:34:45;;;;;;;20.60;5.50;;;;;;;26.60;30.39;101200.47;5060784;28;20040;-60
2023/06/16 08:37:12;;;;;;;17.67;5.15;;;;;;;26.34;29.74;101186.81;5065121;28;20047;-60
2023/06/16 08:39:56;;;;;;;14.73;4.72;;;;;;;26.57;28.76;101189.19;5060604;28;20051;-60
2023/06/16 08:42:23;;;;;;;13.40;4.72;;;;;;;26.78;29.10;101194.72;5064235;28;20052;-60
2023/06/16 08:44:52;;;;;;;11.38;5.20;;;;;;;26.88;28.89;101190.25;5062850;28;20463;-61
2023/06/16 08:47:20;;;;;;;15.57;4.87;;;;;;;27.11;28.44;101185.63;5047298;28;20537;-60
2023/06/16 08:49:52;;;;;;;14.55;5.07;;;;;;;26.55;28.42;101189.56;5056746;28;20295;-60
2023/06/16 08:52:21;;;;;;;17.15;4.75;;;;;;;26.33;29.08;101185.22;5064218;28;20694;-62
2023/06/16 08:55:13;;;;;;;9.10;4.60;;;;;;;26.59;28.11;101179.06;5077474;28;20037;-60
2023/06/16 08:57:47;;;;;;;15.13;5.00;;;;;;;26.87;28.22;101174.53;5060943;28;20064;-60
2023/06/16 09:00:16;;;;;;;15.95;4.95;;;;;;;27.14;28.73;101182.00;5063466;28;20071;-61
2023/06/16 09:02:48;;;;;;;13.18;4.57;;;;;;;27.33;28.79;101173.00;5060012;28;20051;-60
2023/06/16 09:05:18;;;;;;;21.58;5.20;;;;;;;27.51;28.19;101184.97;5059621;28;20060;-61
2023/06/16 09:07:47;;;;;;;12.75;4.72;;;;;;;26.60;28.48;101177.03;5062639;28;20057;-62
2023/06/16 09:10:16;;;;;;;8.10;4.20;;;;;;;26.81;26.97;101178.97;5057283;28;20065;-61
2023/06/16 09:12:44;;;;;;;14.15;4.50;;;;;;;26.67;27.56;101177.81;5060058;28;20049;-61
2023/06/16 09:15:11;;;;;;;9.77;4.53;;;;;;;26.86;27.27;101181.38;5058581;28;20071;-61
2023/06/16 09:17:40;;;;;;;9.20;3.92;;;;;;;27.22;27.67;101169.41;5056706;28;20045;-61
2023/06/16 09:20:18;;;;;;;7.80;4.25;;;;;;;27.49;27.68;101167.63;5064212;28;20051;-61
2023/06/16 09:22:56;;;;;;;15.15;4.70;;;;;;;27.55;26.79;101170.78;5056664;28;20508;-62
2023/06/16 09:25:24;;;;;;;14.10;4.43;;;;;;;27.18;27.10;101174.28;5061428;28;20062;-61
2023/06/16 09:27:52;;;;;;;9.77;4.32;;;;;;;27.07;27.41;101169.94;5061704;28;20052;-60
2023/06/16 09:30:20;;;;;;;11.18;4.07;;;;;;;27.35;27.19;101158.44;5059142;28;20526;-63
2023/06/16 09:32:50;;;;;;;13.75;4.40;;;;;;;26.59;27.90;101170.59;5057792;28;20087;-61
2023/06/16 09:35:22;;;;;;;10.77;4.40;;;;;;;26.48;27.40;101171.84;5058507;28;20048;-61
2023/06/16 09:37:51;;;;;;;12.10;4.00;;;;;;;26.61;27.70;101164.50;5056082;28;20048;-61
2023/06/16 09:40:20;;;;;;;14.45;4.68;;;;;;;26.71;27.55;101160.84;5049308;28;24332;-62
2023/06/16 09:42:50;;;;;;;11.13;3.95;;;;;;;26.29;27.07;101167.47;5059949;28;20048;-61
2023/06/16 09:45:18;;;;;;;;;;;;;;;26.21;27.17;101162.25;5064712;28;20496;-61
2023/06/16 09:47:47;;;;;;;11.77;3.88;;;;;;;26.39;26.99;101161.00;5061377;28;20275;-60
2023/06/16 09:50:16;;;;;;;16.77;5.00;;;;;;;26.55;27.52;101166.97;5061618;28;20052;-60
2023/06/16 09:52:46;;;;;;;16.70;4.82;;;;;;;26.29;27.21;101167.47;5064697;28;20389;-62
2023/06/16 09:55:14;;;;;;;14.87;4.50;;;;;;;26.41;27.03;101164.19;5059650;28;20048;-62
2023/06/16 09:57:44;;;;;;;11.32;4.47;;;;;;;26.62;27.31;101149.19;5056657;28;20076;-61
2023/06/16 10:00:16;;;;;;;7.93;3.90;;;;;;;26.91;27.19;101159.13;5058660;28;20049;-62
2023/06/16 10:02:49;;;;;;;12.02;4.63;;;;;;;27.00;26.71;101162.31;5057804;28;20535;-61
2023/06/16 10:05:18;;;;;;;8.38;4.35;;;;;;;27.04;26.28;101162.28;5056255;28;20063;-61
2023/06/16 10:07:50;;;;;;;7.70;4.18;;;;;;;26.89;26.01;101163.56;5056844;28;20053;-61
2023/06/16 10:10:21;;;;;;;8.82;4.25;;;;;;;27.01;26.26;101155.41;5057068;28;20527;-60
2023/06/16 10:12:50;;;;;;;13.68;4.13;;;;;;;26.78;26.15;101157.19;5053181;28;20467;-61
2023/06/16 10:15:26;;;;;;;14.05;4.10;;;;;;;26.88;26.09;101154.31;5054350;28;20045;-61
2023/06/16 10:18:03;;;;;;;9.30;4.03;;;;;;;26.87;25.79;101154.72;5062620;28;20068;-61
2023/06/16 10:20:37;;;;;;;15.57;4.57;;;;;;;26.93;26.63;101155.88;5056041;28;20041;-61
2023/06/16 10:23:05;;;;;;;12.95;4.43;;;;;;;27.05;26.44;101156.22;5062272;28;20040;-61
2023/06/16 10:25:33;;;;;;;9.98;4.18;;;;;;;27.23;25.91;101159.69;5066178;28;20056;-61
2023/06/16 10:28:05;;;;;;;8.27;3.92;;;;;;;27.10;26.01;101155.75;5054247;28;20661;-60
2023/06/16 10:30:33;;;;;;;13.50;5.00;;;;;;;26.78;26.61;101148.72;5052935;28;20041;-60
2023/06/16 10:33:18;;;;;;;16.05;8.13;;;;;;;27.06;25.95;101152.16;5057170;28;20049;-62
2023/06/16 10:35:50;;;;;;;13.18;8.57;;;;;;;27.15;26.25;101146.84;5055218;28;22998;-60
2023/06/16 10:38:24;;;;;;;16.65;8.98;;;;;;;27.08;25.97;101151.72;5060813;28;20060;-62
2023/06/16 10:40:54;;;;;;;10.20;5.55;;;;;;;27.07;25.76;101142.47;5057475;28;20040;-60
2023/06/16 10:43:25;;;;;;;14.45;5.35;;;;;;;26.91;25.92;101147.81;5056630;28;20047;-62
2023/06/16 10:46:15;;;;;;;14.48;4.68;;;;;;;26.89;26.29;101149.44;5044941;28;20269;-61
2023/06/16 10:49:01;;;;;;;;;;;;;;;27.15;25.94;101146.03;5040671;28;20052;-59
2023/06/16 10:51:50;;;;;;;9.48;3.92;;;;;;;27.28;26.13;101150.78;5059294;28;19995;-60
2023/06/16 10:54:32;;;;;;;8.73;4.28;;;;;;;27.20;25.69;101154.88;5053036;28;20040;-60
2023/06/16 10:57:01;;;;;;;8.57;4.78;;;;;;;26.91;26.17;101149.84;5057886;28;20056;-61
2023/06/16 11:00:11;;;;;;;11.80;4.60;;;;;;;26.98;26.34;101147.78;5060170;28;20421;-60
2023/06/16 11:02:50;;;;;;;13.30;4.32;;;;;;;27.39;25.61;101139.41;5057500;28;20052;-61
2023/06/16 11:05:22;;;;;;;12.00;4.47;;;;;;;27.63;26.28;101135.53;5053564;28;20055;-60
2023/06/16 11:08:02;;;;;;;9.00;4.68;;;;;;;28.02;25.63;101127.44;5057531;28;20056;-59
2023/06/16 11:10:31;;;;;;;15.07;5.25;;;;;;;28.44;24.71;101126.13;5018889;28;1097862;-60
2023/06/16 11:12:58;;;;;;;12.48;10.00;;;;;;;28.31;25.49;101125.91;5049447;28;20052;-60
2023/06/16 11:15:26;;;;;;;39.10;19.65;;;;;;;28.49;25.18;101117.13;5059812;28;20055;-61
2023/06/16 11:17:53;;;;;;;21.30;16.70;;;;;;;28.30;25.08;101121.44;5052596;28;20503;-59
2023/06/16 11:20:21;;;;;;;16.45;9.23;;;;;;;28.74;24.99;101123.31;5047019;28;20052;-60
2023/06/16 11:22:50;;;;;;;19.27;7.85;;;;;;;28.67;25.03;101123.41;5059317;28;20500;-61
2023/06/16 11:25:18;;;;;;;10.48;4.68;;;;;;;28.23;24.13;101118.69;5061213;28;20044;-59
2023/06/16 11:27:45;;;;;;;7.35;4.60;;;;;;;27.91;24.62;101123.97;5055259;28;20136;-61
2023/06/16 11:30:13;;;;;;;12.95;4.45;;;;;;;28.02;24.94;101118.16;5051186;28;20041;-62
2023/06/16 11:32:40;;;;;;;10.75;5.22;;;;;;;28.16;24.47;101112.31;5056113;28;20056;-60
2023/06/16 11:35:09;;;;;;;9.27;4.97;;;;;;;28.37;24.26;101117.72;5056578;28;20059;-61